Time;durP1;ratioP1;P1;durP2;ratioP2;P2;SDS_P1;SDS_P2;PMS_P1;PMS_P2;Temp;Humidity;BMP_temperature;BMP_pressure;BME280_temperature;BME280_humidity;BME280_pressure;Samples;Min_cycle;Max_cycle;Signal;HPM_P1;HPM_P2
2022/01/09 00:00:09;;;;;;;4.85;3.30;;;16.80;99.90;;;;;;4229314;28;20239;-75
2022/01/09 00:02:11;;;;;;;8.90;3.63;;;16.80;99.90;;;;;;4228313;28;20217;-75
2022/01/09 00:04:13;;;;;;;6.88;3.33;;;16.80;99.90;;;;;;4229132;28;20294;-75
2022/01/09 00:06:16;;;;;;;5.85;3.22;;;16.80;99.90;;;;;;4229102;28;20273;-75
2022/01/09 00:08:19;;;;;;;7.13;3.10;;;16.80;99.90;;;;;;4229575;28;20217;-75
2022/01/09 00:10:21;;;;;;;5.88;3.08;;;16.80;99.90;;;;;;4224985;28;20263;-75
2022/01/09 00:12:26;;;;;;;7.80;3.35;;;16.80;99.90;;;;;;4225037;28;20734;-75
2022/01/09 00:14:28;;;;;;;9.20;3.28;;;16.80;99.90;;;;;;4229246;28;20213;-75
2022/01/09 00:16:31;;;;;;;8.00;3.25;;;16.80;99.90;;;;;;4229166;28;20612;-75
2022/01/09 00:18:33;;;;;;;5.13;2.90;;;16.70;99.90;;;;;;4225955;28;20279;-75
2022/01/09 00:20:36;;;;;;;7.47;3.45;;;16.80;99.90;;;;;;4228099;28;20238;-75
2022/01/09 00:22:43;;;;;;;6.20;3.15;;;16.70;99.90;;;;;;4228947;28;20213;-75
2022/01/09 00:24:46;;;;;;;7.93;3.53;;;16.70;99.90;;;;;;4240854;27;20212;-75
2022/01/09 00:26:48;;;;;;;5.72;2.97;;;16.70;99.90;;;;;;4246061;27;20266;-75
2022/01/09 00:28:52;;;;;;;6.68;3.30;;;16.70;99.90;;;;;;4245599;27;20222;-75
2022/01/09 00:30:54;;;;;;;5.97;3.20;;;16.70;99.90;;;;;;4228165;28;20353;-75
2022/01/09 00:32:57;;;;;;;6.63;3.30;;;16.80;99.90;;;;;;4228873;28;20221;-75
2022/01/09 00:34:59;;;;;;;6.38;2.63;;;16.70;99.90;;;;;;4228853;28;20213;-75
2022/01/09 00:37:01;;;;;;;6.45;3.17;;;16.70;99.90;;;;;;4225606;28;20275;-75
2022/01/09 00:39:05;;;;;;;5.45;2.97;;;16.70;99.90;;;;;;4228957;28;20271;-74
2022/01/09 00:41:07;;;;;;;5.72;3.00;;;16.80;99.90;;;;;;4241204;27;20208;-75
2022/01/09 00:43:09;;;;;;;9.85;3.45;;;16.70;99.90;;;;;;4228815;28;20294;-74
2022/01/09 00:45:14;;;;;;;5.32;3.10;;;16.70;99.90;;;;;;4228598;28;20628;-74
2022/01/09 00:47:17;;;;;;;6.45;3.17;;;16.80;99.90;;;;;;4228695;28;20267;-74
2022/01/09 00:49:19;;;;;;;7.13;3.30;;;16.70;99.90;;;;;;4228813;28;20221;-74
2022/01/09 00:51:23;;;;;;;6.03;3.08;;;16.70;99.90;;;;;;4228786;28;20950;-74
2022/01/09 00:53:25;;;;;;;5.80;3.08;;;16.70;99.90;;;;;;4227592;28;20275;-74
2022/01/09 00:55:27;;;;;;;6.75;3.03;;;16.70;99.90;;;;;;4228688;28;20279;-74
2022/01/09 00:57:30;;;;;;;4.68;2.88;;;16.70;99.90;;;;;;4228416;28;20214;-74
2022/01/09 00:59:32;;;;;;;8.10;3.38;;;16.80;99.90;;;;;;4228254;28;20217;-75
2022/01/09 01:01:36;;;;;;;7.60;3.58;;;16.70;99.90;;;;;;4228635;28;20627;-74
2022/01/09 01:03:38;;;;;;;7.40;3.28;;;16.70;99.90;;;;;;4228357;28;20237;-74
2022/01/09 01:05:41;;;;;;;7.60;3.20;;;16.70;99.90;;;;;;4228839;28;20221;-74
2022/01/09 01:07:43;;;;;;;8.82;3.53;;;16.70;99.90;;;;;;4228627;28;20217;-74
2022/01/09 01:09:45;;;;;;;11.73;3.78;;;16.70;99.90;;;;;;4226206;28;20267;-74
2022/01/09 01:11:48;;;;;;;6.68;3.17;;;16.70;99.90;;;;;;4228313;28;20221;-74
2022/01/09 01:13:50;;;;;;;8.98;3.47;;;16.80;99.90;;;;;;4228428;28;20213;-74
2022/01/09 01:15:53;;;;;;;6.85;3.10;;;16.70;99.90;;;;;;4228556;28;20270;-74
2022/01/09 01:17:56;;;;;;;6.13;3.03;;;16.70;99.90;;;;;;4228929;28;20573;-74
2022/01/09 01:19:59;;;;;;;8.23;3.47;;;16.70;99.90;;;;;;4228364;28;20258;-74
2022/01/09 01:22:01;;;;;;;6.70;3.03;;;16.70;99.90;;;;;;4229292;28;20213;-74
2022/01/09 01:24:04;;;;;;;10.93;3.53;;;16.70;99.90;;;;;;4235976;27;20237;-74
2022/01/09 01:26:07;;;;;;;7.32;3.05;;;16.80;99.90;;;;;;4247221;27;20209;-74
2022/01/09 01:28:09;;;;;;;6.80;3.20;;;16.70;99.90;;;;;;4231664;27;20642;-74
2022/01/09 01:30:12;;;;;;;7.05;3.40;;;16.70;99.90;;;;;;4231614;28;20213;-75
2022/01/09 01:32:15;;;;;;;7.15;3.15;;;16.70;99.90;;;;;;4236643;27;20221;-74
2022/01/09 01:34:18;;;;;;;9.15;3.30;;;16.70;99.90;;;;;;4248452;27;20201;-74
2022/01/09 01:36:21;;;;;;;8.88;3.20;;;16.60;99.90;;;;;;4248173;27;20221;-74
2022/01/09 01:38:23;;;;;;;6.28;2.60;;;16.60;99.90;;;;;;4245250;27;20225;-74
2022/01/09 01:40:26;;;;;;;5.82;2.78;;;16.70;99.90;;;;;;4240150;27;20217;-74
2022/01/09 01:42:28;;;;;;;6.47;3.10;;;16.60;99.90;;;;;;4248629;27;20209;-74
2022/01/09 01:44:39;;;;;;;5.82;3.17;;;16.60;99.90;;;;;;4234615;27;20693;-74
2022/01/09 01:46:42;;;;;;;8.30;3.28;;;16.60;99.90;;;;;;4231394;28;20618;-74
2022/01/09 01:48:45;;;;;;;7.60;3.25;;;16.60;99.90;;;;;;4231498;28;21075;-74
2022/01/09 01:50:49;;;;;;;8.65;3.22;;;16.60;99.90;;;;;;4231831;28;20263;-75
2022/01/09 01:52:53;;;;;;;9.73;3.15;;;16.60;99.90;;;;;;4231200;28;20288;-74
2022/01/09 01:54:56;;;;;;;7.05;3.03;;;16.60;99.90;;;;;;4231255;28;20693;-74
2022/01/09 01:56:59;;;;;;;6.78;3.17;;;16.70;99.90;;;;;;4231112;28;20282;-74
2022/01/09 01:59:01;;;;;;;8.90;3.10;;;16.60;99.90;;;;;;4226441;28;20259;-74
2022/01/09 02:01:04;;;;;;;8.77;3.20;;;16.60;99.90;;;;;;4228138;28;20222;-74
2022/01/09 02:03:06;;;;;;;9.43;3.30;;;16.60;99.90;;;;;;4231583;28;20336;-74
2022/01/09 02:05:10;;;;;;;9.15;3.55;;;16.60;99.90;;;;;;4231196;28;20271;-74
2022/01/09 02:07:13;;;;;;;9.57;3.10;;;16.70;99.90;;;;;;4231023;28;20221;-74
2022/01/09 02:09:16;;;;;;;6.72;3.08;;;16.60;99.90;;;;;;4230088;28;20251;-75
2022/01/09 02:11:19;;;;;;;8.65;3.53;;;16.60;99.90;;;;;;4230915;28;20255;-74
2022/01/09 02:13:21;;;;;;;8.43;2.95;;;16.60;99.90;;;;;;4230851;28;20669;-74
2022/01/09 02:15:28;;;;;;;7.32;2.78;;;16.60;99.90;;;;;;4230919;28;20624;-75
2022/01/09 02:17:30;;;;;;;10.10;3.00;;;16.60;99.90;;;;;;4237013;27;20659;-74
2022/01/09 02:19:33;;;;;;;11.43;3.90;;;16.60;99.90;;;;;;4230764;28;20214;-74
2022/01/09 02:21:37;;;;;;;10.80;3.83;;;16.60;99.90;;;;;;4231331;28;20217;-74
2022/01/09 02:23:41;;;;;;;6.07;2.45;;;16.60;99.90;;;;;;4229821;28;20210;-74
2022/01/09 02:25:44;;;;;;;8.85;3.33;;;16.60;99.90;;;;;;4230896;28;20266;-74
2022/01/09 02:27:46;;;;;;;7.65;3.25;;;16.60;99.90;;;;;;4232783;27;20616;-74
2022/01/09 02:29:49;;;;;;;8.63;2.97;;;16.60;99.90;;;;;;4230635;28;20239;-74
2022/01/09 02:31:51;;;;;;;7.97;2.97;;;16.50;99.90;;;;;;4241230;27;20233;-74
2022/01/09 02:33:54;;;;;;;5.90;2.88;;;16.50;99.90;;;;;;4246913;27;20217;-74
2022/01/09 02:35:56;;;;;;;10.10;3.30;;;16.50;99.90;;;;;;4233517;27;20221;-74
2022/01/09 02:38:01;;;;;;;8.40;3.28;;;16.50;99.90;;;;;;4247761;27;20289;-74
2022/01/09 02:40:04;;;;;;;6.05;2.90;;;16.60;99.90;;;;;;4242076;27;20757;-74
2022/01/09 02:42:18;;;;;;;6.68;2.97;;;16.50;99.90;;;;;;4230331;28;20290;-74
2022/01/09 02:44:20;;;;;;;7.65;2.67;;;16.50;99.90;;;;;;4230587;28;20282;-74
2022/01/09 02:46:41;;;;;;;7.90;3.22;;;16.50;99.90;;;;;;4230248;28;20218;-75
2022/01/09 02:48:44;;;;;;;9.60;3.58;;;16.50;99.90;;;;;;4230292;28;20258;-74
2022/01/09 02:50:59;;;;;;;7.70;3.17;;;16.50;99.90;;;;;;4230440;28;20306;-74
2022/01/09 02:53:13;;;;;;;7.22;3.20;;;16.50;99.90;;;;;;4229097;28;20270;-74
2022/01/09 02:55:16;;;;;;;6.82;3.03;;;16.50;99.90;;;;;;4230567;28;20217;-74
2022/01/09 02:57:18;;;;;;;8.25;2.95;;;16.50;99.90;;;;;;4227767;28;20252;-74
2022/01/09 02:59:20;;;;;;;6.75;3.10;;;16.50;99.90;;;;;;4229868;28;20259;-74
2022/01/09 03:01:23;;;;;;;7.30;2.83;;;16.50;99.90;;;;;;4230622;28;20666;-74
2022/01/09 03:03:25;;;;;;;6.40;2.83;;;16.50;99.90;;;;;;4230497;28;20222;-74
2022/01/09 03:05:29;;;;;;;6.28;3.00;;;16.50;99.90;;;;;;4230348;28;20245;-74
2022/01/09 03:07:31;;;;;;;6.68;2.75;;;16.50;99.90;;;;;;4230009;28;20274;-74
2022/01/09 03:09:35;;;;;;;9.02;2.97;;;16.50;99.90;;;;;;4226066;27;20217;-74
2022/01/09 03:11:39;;;;;;;7.03;3.03;;;16.50;99.90;;;;;;4229586;28;20559;-74
2022/01/09 03:13:41;;;;;;;8.00;3.45;;;16.50;99.90;;;;;;4229762;28;20630;-74
2022/01/09 03:15:44;;;;;;;8.85;2.75;;;16.50;99.90;;;;;;4230136;28;20256;-75
2022/01/09 03:17:47;;;;;;;4.35;2.35;;;16.50;99.90;;;;;;4235052;27;20634;-74
2022/01/09 03:19:49;;;;;;;7.93;2.88;;;16.40;99.90;;;;;;4246887;27;20669;-74
2022/01/09 03:21:51;;;;;;;9.60;3.17;;;16.50;99.90;;;;;;4246695;27;20219;-74
2022/01/09 03:23:54;;;;;;;9.15;3.08;;;16.40;99.90;;;;;;4246621;27;20257;-74
2022/01/09 03:25:57;;;;;;;5.43;2.78;;;16.40;99.90;;;;;;4237375;27;20246;-74
2022/01/09 03:28:00;;;;;;;9.15;2.65;;;16.40;99.90;;;;;;4229607;28;20221;-74
2022/01/09 03:30:02;;;;;;;7.50;2.97;;;16.50;99.90;;;;;;4229277;28;20639;-74
2022/01/09 03:32:06;;;;;;;9.63;3.25;;;16.40;99.90;;;;;;4229644;28;20210;-74
2022/01/09 03:34:08;;;;;;;7.65;2.97;;;16.40;99.90;;;;;;4246644;27;20217;-74
2022/01/09 03:36:11;;;;;;;7.55;2.78;;;16.50;99.90;;;;;;4230153;28;20659;-75
2022/01/09 03:38:13;;;;;;;8.35;2.92;;;16.40;99.90;;;;;;4229842;28;20210;-74
2022/01/09 03:40:18;;;;;;;7.63;2.90;;;16.50;99.90;;;;;;4236510;27;20213;-74
2022/01/09 03:42:22;;;;;;;7.68;2.88;;;16.40;99.90;;;;;;4242065;27;20251;-75
2022/01/09 03:44:24;;;;;;;5.43;2.90;;;16.40;99.90;;;;;;4229284;28;20213;-74
2022/01/09 03:46:26;;;;;;;8.90;3.10;;;16.40;99.90;;;;;;4229687;28;20217;-75
2022/01/09 03:48:29;;;;;;;6.95;2.85;;;16.40;99.90;;;;;;4224788;27;20213;-74
2022/01/09 03:50:32;;;;;;;8.75;2.90;;;16.40;99.90;;;;;;4229162;28;20284;-74
2022/01/09 03:52:37;;;;;;;7.65;2.85;;;16.40;99.90;;;;;;4229492;28;20214;-74
2022/01/09 03:54:40;;;;;;;8.63;2.90;;;16.40;99.90;;;;;;4229261;28;20213;-75
2022/01/09 03:56:42;;;;;;;8.05;2.90;;;16.40;99.90;;;;;;4229371;28;20297;-74
2022/01/09 03:58:46;;;;;;;6.82;3.00;;;16.40;99.90;;;;;;4226340;28;20263;-75
2022/01/09 04:00:48;;;;;;;6.57;2.55;;;16.40;99.90;;;;;;4227723;28;20239;-74
2022/01/09 04:02:53;;;;;;;7.72;2.78;;;16.40;99.90;;;;;;4229199;28;20218;-74
2022/01/09 04:04:56;;;;;;;8.10;3.17;;;16.40;99.90;;;;;;4228149;28;20233;-74
2022/01/09 04:06:58;;;;;;;8.15;2.45;;;16.40;99.90;;;;;;4229443;28;20263;-74
2022/01/09 04:09:07;;;;;;;7.25;2.53;;;16.30;99.90;;;;;;4229460;28;20198;-75
2022/01/09 04:11:11;;;;;;;5.72;2.50;;;16.40;99.90;;;;;;4229102;28;20218;-74
2022/01/09 04:13:14;;;;;;;7.80;3.13;;;16.40;99.90;;;;;;4229137;28;20246;-75
2022/01/09 04:15:19;;;;;;;6.15;2.83;;;16.40;99.90;;;;;;4242352;27;20274;-75
2022/01/09 04:17:29;;;;;;;8.65;2.88;;;16.30;99.90;;;;;;4232962;27;20218;-75
2022/01/09 04:19:32;;;;;;;10.10;2.70;;;16.30;99.90;;;;;;4231291;27;20209;-75
2022/01/09 04:21:34;;;;;;;8.05;2.78;;;16.40;99.90;;;;;;4229138;28;20269;-75
2022/01/09 04:23:37;;;;;;;6.72;3.10;;;16.30;99.90;;;;;;4229124;28;20226;-75
2022/01/09 04:25:39;;;;;;;7.20;2.90;;;16.30;99.90;;;;;;4229065;28;20234;-74
2022/01/09 04:27:42;;;;;;;7.40;2.40;;;16.30;99.90;;;;;;4228709;28;20221;-75
2022/01/09 04:29:44;;;;;;;7.18;2.88;;;16.40;99.90;;;;;;4228955;28;20222;-75
2022/01/09 04:31:48;;;;;;;6.78;2.63;;;16.30;99.90;;;;;;4228956;28;20286;-74
2022/01/09 04:33:50;;;;;;;6.28;2.53;;;16.40;99.90;;;;;;4226369;28;20221;-75
2022/01/09 04:35:53;;;;;;;6.95;2.38;;;16.30;99.90;;;;;;4229056;28;20263;-74
2022/01/09 04:37:55;;;;;;;7.18;2.90;;;16.30;99.90;;;;;;4228499;28;20259;-75
2022/01/09 04:39:58;;;;;;;6.82;2.72;;;16.30;99.90;;;;;;4240917;27;20206;-74
2022/01/09 04:42:00;;;;;;;7.55;2.70;;;16.30;99.90;;;;;;4228890;28;20217;-74
2022/01/09 04:44:02;;;;;;;8.63;2.53;;;16.30;99.90;;;;;;4228973;28;20218;-75
2022/01/09 04:46:04;;;;;;;5.93;2.10;;;16.30;99.90;;;;;;4228401;28;20255;-74
2022/01/09 04:48:10;;;;;;;7.70;2.60;;;16.30;99.90;;;;;;4228910;28;20673;-74
2022/01/09 04:50:17;;;;;;;5.80;2.42;;;16.30;99.90;;;;;;4226626;28;20278;-75
2022/01/09 04:52:24;;;;;;;5.72;2.53;;;16.30;99.90;;;;;;4228456;28;20209;-75
2022/01/09 04:54:26;;;;;;;9.25;2.70;;;16.30;99.90;;;;;;4228700;28;20266;-75
2022/01/09 04:56:29;;;;;;;7.78;2.92;;;16.30;99.90;;;;;;4228017;28;20650;-75
2022/01/09 04:58:31;;;;;;;5.72;2.35;;;16.20;99.90;;;;;;4227740;28;20666;-74
2022/01/09 05:00:33;;;;;;;7.95;2.42;;;16.30;99.90;;;;;;4229129;28;20954;-74
2022/01/09 05:02:36;;;;;;;8.25;2.97;;;16.30;99.90;;;;;;4228838;28;20217;-74
2022/01/09 05:04:40;;;;;;;7.53;2.83;;;16.30;99.90;;;;;;4228391;28;20852;-74
2022/01/09 05:06:42;;;;;;;8.60;3.00;;;16.20;99.90;;;;;;4228330;28;20283;-75
2022/01/09 05:08:44;;;;;;;8.13;2.67;;;16.20;99.90;;;;;;4239580;28;20254;-74
2022/01/09 05:10:47;;;;;;;7.07;2.78;;;16.20;99.90;;;;;;4245689;28;20487;-74
2022/01/09 05:12:49;;;;;;;5.20;2.30;;;16.20;99.90;;;;;;4227829;28;20218;-74
2022/01/09 05:14:51;;;;;;;7.95;2.70;;;16.20;99.90;;;;;;4228334;28;20222;-74
2022/01/09 05:16:54;;;;;;;5.88;2.55;;;16.20;99.90;;;;;;4228212;28;20210;-74
2022/01/09 05:19:02;;;;;;;8.30;2.33;;;16.20;99.90;;;;;;4233308;28;20258;-74
2022/01/09 05:21:06;;;;;;;5.93;2.60;;;16.30;99.90;;;;;;4245230;28;20205;-74
2022/01/09 05:23:08;;;;;;;5.72;2.50;;;16.20;99.90;;;;;;4245553;28;20669;-74
2022/01/09 05:25:11;;;;;;;5.50;2.45;;;16.20;99.90;;;;;;4232656;28;20229;-75
2022/01/09 05:27:13;;;;;;;6.00;2.95;;;16.20;99.90;;;;;;4228294;28;20233;-74
2022/01/09 05:29:15;;;;;;;5.50;2.08;;;16.20;99.90;;;;;;4228549;28;20267;-74
2022/01/09 05:31:18;;;;;;;7.57;2.57;;;16.20;99.90;;;;;;4228262;28;20237;-74
2022/01/09 05:33:20;;;;;;;5.47;2.35;;;16.30;99.90;;;;;;4228637;28;20251;-74
2022/01/09 05:35:25;;;;;;;8.43;2.92;;;16.20;99.90;;;;;;4226736;28;20599;-74
2022/01/09 05:37:29;;;;;;;7.00;2.25;;;16.20;99.90;;;;;;4226323;28;20209;-74
2022/01/09 05:39:31;;;;;;;6.05;2.35;;;16.20;99.90;;;;;;4229223;28;20210;-74
2022/01/09 05:41:34;;;;;;;6.82;2.60;;;16.20;99.90;;;;;;4237657;28;20214;-74
2022/01/09 05:43:38;;;;;;;8.10;2.50;;;16.20;99.90;;;;;;4228258;28;20213;-74
2022/01/09 05:45:41;;;;;;;9.43;2.93;;;16.20;99.90;;;;;;4224378;28;20211;-74
2022/01/09 05:47:43;;;;;;;7.88;2.63;;;16.20;99.90;;;;;;4228311;28;20218;-74
2022/01/09 05:49:45;;;;;;;8.48;2.25;;;16.10;99.90;;;;;;4228095;28;20214;-75
2022/01/09 05:51:48;;;;;;;7.17;2.67;;;16.20;99.90;;;;;;4228203;28;20274;-74
2022/01/09 05:53:51;;;;;;;7.68;2.42;;;16.10;99.90;;;;;;4228299;28;20266;-75
2022/01/09 05:55:54;;;;;;;8.25;2.65;;;16.20;99.90;;;;;;4228001;28;20214;-75
2022/01/09 05:57:56;;;;;;;6.20;2.25;;;16.20;99.90;;;;;;4228220;28;20226;-75
2022/01/09 05:59:59;;;;;;;9.23;2.80;;;16.10;99.90;;;;;;4226756;28;20666;-74
2022/01/09 06:02:01;;;;;;;6.95;2.63;;;16.10;99.90;;;;;;4228318;28;20214;-74
2022/01/09 06:04:05;;;;;;;8.35;2.70;;;16.10;99.90;;;;;;4227687;28;20217;-75
2022/01/09 06:06:08;;;;;;;5.85;2.42;;;16.10;99.90;;;;;;4227877;28;20234;-74
2022/01/09 06:08:10;;;;;;;6.70;2.30;;;16.10;99.90;;;;;;4228830;28;20210;-74
2022/01/09 06:10:14;;;;;;;7.45;2.30;;;16.20;99.90;;;;;;4236357;27;20213;-75
2022/01/09 06:12:16;;;;;;;6.63;2.50;;;16.10;99.90;;;;;;4232209;27;20243;-75
2022/01/09 06:14:18;;;;;;;6.32;2.17;;;16.10;99.90;;;;;;4230967;28;20291;-74
2022/01/09 06:16:22;;;;;;;5.17;2.27;;;16.10;99.90;;;;;;4227811;28;20214;-74
2022/01/09 06:18:25;;;;;;;5.63;2.35;;;16.10;99.90;;;;;;4231027;28;20209;-74
2022/01/09 06:20:27;;;;;;;8.07;2.38;;;16.20;99.90;;;;;;4231190;28;20222;-74
2022/01/09 06:22:29;;;;;;;7.28;2.45;;;16.10;99.90;;;;;;4230888;28;20222;-75
2022/01/09 06:24:32;;;;;;;5.55;2.40;;;16.10;99.90;;;;;;4230978;28;20254;-74
2022/01/09 06:26:35;;;;;;;7.78;2.78;;;16.10;99.90;;;;;;4230593;28;20640;-74
2022/01/09 06:28:38;;;;;;;6.68;2.50;;;16.10;99.90;;;;;;4231028;28;20723;-74
2022/01/09 06:30:40;;;;;;;7.43;2.23;;;16.10;99.90;;;;;;4230495;28;20229;-74
2022/01/09 06:32:43;;;;;;;8.15;2.55;;;16.10;99.90;;;;;;4229374;28;20275;-75
2022/01/09 06:34:46;;;;;;;6.03;2.13;;;16.00;99.90;;;;;;4229940;28;20222;-74
2022/01/09 06:36:48;;;;;;;5.10;2.03;;;16.10;99.90;;;;;;4231018;28;20295;-74
2022/01/09 06:38:50;;;;;;;6.35;2.17;;;16.10;99.90;;;;;;4230930;28;20278;-74
2022/01/09 06:40:52;;;;;;;5.53;2.38;;;16.00;99.90;;;;;;4242611;27;20209;-74
2022/01/09 06:42:56;;;;;;;7.90;2.80;;;16.00;99.90;;;;;;4230471;28;20255;-75
2022/01/09 06:44:59;;;;;;;8.07;2.50;;;16.10;99.90;;;;;;4230273;28;20217;-75
2022/01/09 06:47:02;;;;;;;5.65;2.22;;;16.10;99.90;;;;;;4229303;28;20233;-75
2022/01/09 06:49:04;;;;;;;6.20;2.45;;;16.00;99.90;;;;;;4229486;28;20258;-74
2022/01/09 06:51:07;;;;;;;5.35;2.42;;;16.00;99.90;;;;;;4230486;28;20263;-74
2022/01/09 06:53:09;;;;;;;6.22;2.30;;;16.10;99.90;;;;;;4230142;28;20282;-75
2022/01/09 06:55:12;;;;;;;6.05;2.17;;;16.00;99.90;;;;;;4234657;27;20221;-75
2022/01/09 06:57:15;;;;;;;5.32;2.08;;;16.00;99.90;;;;;;4247487;27;20213;-75
2022/01/09 06:59:18;;;;;;;5.60;2.03;;;16.00;99.90;;;;;;4246859;27;20289;-74
2022/01/09 07:01:21;;;;;;;6.00;2.65;;;16.00;99.90;;;;;;4247136;27;20262;-74
2022/01/09 07:03:23;;;;;;;5.40;2.20;;;16.00;99.90;;;;;;4247294;27;20254;-75
2022/01/09 07:05:25;;;;;;;6.88;2.22;;;16.00;99.90;;;;;;4246992;27;20253;-74
2022/01/09 07:07:28;;;;;;;7.28;2.28;;;16.00;99.90;;;;;;4232935;27;20242;-75
2022/01/09 07:09:30;;;;;;;7.00;2.35;;;16.00;99.90;;;;;;4229827;28;20222;-75
2022/01/09 07:11:32;;;;;;;5.83;2.03;;;16.00;99.90;;;;;;4229855;28;20209;-74
2022/01/09 07:13:35;;;;;;;5.40;2.10;;;16.00;99.90;;;;;;4229872;28;20270;-74
2022/01/09 07:15:39;;;;;;;6.27;2.20;;;16.00;99.90;;;;;;4230112;28;20218;-74
2022/01/09 07:17:44;;;;;;;6.45;2.20;;;16.00;99.90;;;;;;4232418;27;20265;-74
2022/01/09 07:19:47;;;;;;;7.32;2.45;;;16.00;99.90;;;;;;4246328;27;20274;-74
2022/01/09 07:21:49;;;;;;;6.25;2.33;;;16.00;99.90;;;;;;4246887;27;20255;-75
2022/01/09 07:23:51;;;;;;;7.20;1.92;;;16.00;99.90;;;;;;4233281;27;20217;-74
2022/01/09 07:25:54;;;;;;;6.43;2.15;;;16.00;99.90;;;;;;4226721;28;20210;-74
2022/01/09 07:27:56;;;;;;;5.22;1.90;;;16.00;99.90;;;;;;4229615;28;20282;-74
2022/01/09 07:29:58;;;;;;;5.13;2.20;;;16.00;99.90;;;;;;4229717;28;20238;-75
2022/01/09 07:32:02;;;;;;;7.25;2.30;;;16.00;99.90;;;;;;4212729;28;20295;-74
2022/01/09 07:34:05;;;;;;;4.97;2.23;;;16.00;99.90;;;;;;4211244;28;20279;-75
2022/01/09 07:36:07;;;;;;;5.60;2.40;;;16.00;99.90;;;;;;4212506;28;20261;-74
2022/01/09 07:38:09;;;;;;;5.53;2.20;;;15.90;99.90;;;;;;4212742;28;20222;-75
2022/01/09 07:40:13;;;;;;;5.25;2.03;;;16.00;99.90;;;;;;4216076;28;20250;-75
2022/01/09 07:42:15;;;;;;;4.88;2.17;;;15.90;99.90;;;;;;4213670;28;20219;-74
2022/01/09 07:44:18;;;;;;;8.43;2.40;;;16.00;99.90;;;;;;4229700;28;20214;-74
2022/01/09 07:46:21;;;;;;;7.03;2.40;;;16.00;99.90;;;;;;4229577;28;20258;-74
2022/01/09 07:48:24;;;;;;;5.65;1.98;;;15.90;99.90;;;;;;4229607;28;20246;-75
2022/01/09 07:50:28;;;;;;;7.00;1.88;;;15.90;99.90;;;;;;4222973;28;20268;-74
2022/01/09 07:52:34;;;;;;;8.47;2.13;;;15.90;99.90;;;;;;4213024;28;20218;-74
2022/01/09 07:54:36;;;;;;;4.75;1.92;;;16.00;99.90;;;;;;4212905;28;20666;-74
2022/01/09 07:56:39;;;;;;;5.68;2.00;;;15.90;99.90;;;;;;4212871;28;20213;-75
2022/01/09 07:58:41;;;;;;;6.63;2.08;;;15.90;99.90;;;;;;4211373;28;20618;-75
2022/01/09 08:00:44;;;;;;;6.63;2.22;;;15.90;99.90;;;;;;4212904;28;20210;-75
2022/01/09 08:02:47;;;;;;;5.60;2.67;;;15.90;99.90;;;;;;4212550;28;20263;-74
2022/01/09 08:04:51;;;;;;;5.15;2.03;;;15.90;99.90;;;;;;4212807;28;20223;-74
2022/01/09 08:06:53;;;;;;;5.10;2.13;;;15.90;99.90;;;;;;4212366;28;20248;-74
2022/01/09 08:08:56;;;;;;;4.88;2.03;;;15.90;99.90;;;;;;4212699;28;20214;-75
2022/01/09 08:10:58;;;;;;;6.50;2.42;;;15.90;99.90;;;;;;4212725;28;20218;-74
2022/01/09 08:13:00;;;;;;;6.47;2.10;;;15.90;99.90;;;;;;4212148;28;20279;-74
2022/01/09 08:15:03;;;;;;;5.57;2.22;;;15.90;99.90;;;;;;4210706;28;20272;-74
2022/01/09 08:17:06;;;;;;;5.50;2.08;;;15.90;99.90;;;;;;4212465;28;20279;-74
2022/01/09 08:19:08;;;;;;;5.75;2.22;;;15.90;99.90;;;;;;4212654;28;20264;-74
2022/01/09 08:21:12;;;;;;;4.57;1.83;;;15.90;99.90;;;;;;4226077;28;20270;-75
2022/01/09 08:23:17;;;;;;;8.07;2.23;;;15.90;99.90;;;;;;4212065;28;20256;-74
2022/01/09 08:25:20;;;;;;;4.22;1.73;;;15.90;99.90;;;;;;4212405;28;20222;-75
2022/01/09 08:27:22;;;;;;;5.03;1.80;;;15.90;99.90;;;;;;4212662;28;20246;-75
2022/01/09 08:29:25;;;;;;;8.30;2.28;;;15.90;99.90;;;;;;4212346;28;21632;-75
2022/01/09 08:31:27;;;;;;;7.75;2.35;;;15.90;99.90;;;;;;4221574;28;20246;-75
2022/01/09 08:33:30;;;;;;;5.63;2.38;;;15.90;99.90;;;;;;4234627;27;20221;-74
2022/01/09 08:35:32;;;;;;;6.13;1.80;;;15.90;99.90;;;;;;4228633;28;20263;-74
2022/01/09 08:37:36;;;;;;;5.07;2.20;;;15.90;99.90;;;;;;4229002;28;20218;-74
2022/01/09 08:39:38;;;;;;;4.55;1.83;;;15.90;99.90;;;;;;4230823;28;20218;-74
2022/01/09 08:41:41;;;;;;;7.23;1.97;;;15.90;99.90;;;;;;4245501;27;20270;-75
2022/01/09 08:43:43;;;;;;;4.77;2.17;;;15.90;99.90;;;;;;4245619;27;20276;-75
2022/01/09 08:45:46;;;;;;;6.10;2.30;;;15.80;99.90;;;;;;4228711;27;20218;-74
2022/01/09 08:47:48;;;;;;;6.53;2.20;;;15.80;99.90;;;;;;4228755;28;20302;-75
2022/01/09 08:49:50;;;;;;;7.03;2.33;;;15.80;99.90;;;;;;4226762;28;20221;-74
2022/01/09 08:51:55;;;;;;;6.10;2.38;;;15.90;99.90;;;;;;4228779;28;20574;-74
2022/01/09 08:54:00;;;;;;;6.97;2.22;;;15.80;99.90;;;;;;4228571;28;20226;-74
2022/01/09 08:56:02;;;;;;;4.55;1.88;;;15.80;99.90;;;;;;4228986;28;20210;-75
2022/01/09 08:58:05;;;;;;;7.32;2.00;;;15.90;99.90;;;;;;4228780;28;20209;-74
2022/01/09 09:00:08;;;;;;;6.70;2.20;;;15.90;99.90;;;;;;4228622;28;20258;-74
2022/01/09 09:02:11;;;;;;;6.75;2.05;;;15.80;99.90;;;;;;4228559;28;20222;-75
2022/01/09 09:04:13;;;;;;;4.93;2.03;;;15.80;99.90;;;;;;4228411;28;20218;-75
2022/01/09 09:06:16;;;;;;;6.83;1.93;;;15.90;99.90;;;;;;4228010;28;20213;-74
2022/01/09 09:08:18;;;;;;;4.13;1.85;;;15.90;99.90;;;;;;4228609;28;20237;-74
2022/01/09 09:10:22;;;;;;;5.13;2.03;;;15.90;99.90;;;;;;4228754;28;20622;-75
2022/01/09 09:12:27;;;;;;;5.10;2.00;;;15.90;99.90;;;;;;4222235;28;20270;-75
2022/01/09 09:14:30;;;;;;;5.53;2.38;;;15.90;99.90;;;;;;4224828;28;20209;-75
2022/01/09 09:16:33;;;;;;;5.83;2.13;;;15.90;99.90;;;;;;4225362;28;20225;-74
2022/01/09 09:18:35;;;;;;;5.22;1.83;;;15.90;99.90;;;;;;4225119;28;20666;-75
2022/01/09 09:20:38;;;;;;;6.35;2.25;;;15.90;99.90;;;;;;4228157;28;20210;-75
2022/01/09 09:22:42;;;;;;;7.43;2.20;;;15.90;99.90;;;;;;4223777;28;20210;-74
2022/01/09 09:24:44;;;;;;;7.20;2.17;;;15.90;99.90;;;;;;4226151;28;20677;-75
2022/01/09 09:26:48;;;;;;;7.03;2.10;;;15.90;99.90;;;;;;4225703;28;20210;-75
2022/01/09 09:28:50;;;;;;;6.93;2.13;;;15.90;99.90;;;;;;4226025;28;20284;-75
2022/01/09 09:30:53;;;;;;;5.15;2.10;;;15.90;99.90;;;;;;4225194;28;20295;-75
2022/01/09 09:32:55;;;;;;;8.82;2.15;;;15.90;99.90;;;;;;4225718;28;20214;-74
2022/01/09 09:34:57;;;;;;;4.60;1.85;;;15.90;99.90;;;;;;4224263;28;20218;-75
2022/01/09 09:37:00;;;;;;;7.22;2.38;;;15.80;99.90;;;;;;4226840;28;20255;-75
2022/01/09 09:39:03;;;;;;;6.25;2.10;;;15.90;99.90;;;;;;4225235;28;20217;-74
2022/01/09 09:41:06;;;;;;;6.60;2.15;;;15.90;99.90;;;;;;4227612;28;20226;-74
2022/01/09 09:43:09;;;;;;;6.20;1.80;;;15.90;99.90;;;;;;4227938;28;20231;-74
2022/01/09 09:45:13;;;;;;;4.70;1.92;;;15.90;99.90;;;;;;4228816;28;20266;-75
2022/01/09 09:47:19;;;;;;;4.30;1.67;;;15.80;99.90;;;;;;4228398;28;20222;-74
2022/01/09 09:49:22;;;;;;;5.53;2.00;;;15.80;99.90;;;;;;4227349;27;20242;-74
2022/01/09 09:51:25;;;;;;;7.60;1.92;;;15.90;99.90;;;;;;4228855;28;20225;-74
2022/01/09 09:53:27;;;;;;;4.07;1.73;;;15.90;99.90;;;;;;4228944;28;20266;-74
2022/01/09 09:55:30;;;;;;;5.55;2.20;;;15.90;99.90;;;;;;4228359;27;20275;-74
2022/01/09 09:57:32;;;;;;;7.53;2.10;;;15.90;99.90;;;;;;4227441;28;20271;-74
2022/01/09 09:59:38;;;;;;;6.28;2.10;;;15.90;99.90;;;;;;4228850;28;20214;-74
2022/01/09 10:01:41;;;;;;;4.60;1.75;;;15.90;99.90;;;;;;4228697;28;20852;-74
2022/01/09 10:03:55;;;;;;;6.53;2.00;;;15.90;99.90;;;;;;4234371;27;20222;-75
2022/01/09 10:05:58;;;;;;;5.20;1.97;;;15.90;99.90;;;;;;4229423;27;20209;-74
2022/01/09 10:08:06;;;;;;;5.10;1.98;;;15.90;99.90;;;;;;4227388;28;20247;-74
2022/01/09 10:10:14;;;;;;;5.68;2.10;;;15.90;99.90;;;;;;4228033;28;20213;-74
2022/01/09 10:12:24;;;;;;;5.93;2.03;;;15.90;99.90;;;;;;4227499;28;20644;-74
2022/01/09 10:14:28;;;;;;;4.75;2.10;;;15.90;99.90;;;;;;4227201;28;20229;-75
2022/01/09 10:16:32;;;;;;;5.82;1.98;;;15.90;99.90;;;;;;4227104;28;20686;-74
2022/01/09 10:18:39;;;;;;;7.17;2.17;;;15.80;99.90;;;;;;4227839;28;20247;-74
2022/01/09 10:20:42;;;;;;;5.63;2.20;;;15.90;99.90;;;;;;4227603;28;20266;-74
2022/01/09 10:22:46;;;;;;;7.78;2.40;;;15.80;99.90;;;;;;4227399;28;20225;-75
2022/01/09 10:24:49;;;;;;;6.50;2.13;;;15.80;99.90;;;;;;4234023;27;20222;-75
2022/01/09 10:26:53;;;;;;;6.60;1.95;;;15.80;99.90;;;;;;4227675;28;20223;-75
2022/01/09 10:28:55;;;;;;;5.88;1.80;;;15.80;99.90;;;;;;4227440;28;20238;-74
2022/01/09 10:30:59;;;;;;;6.68;2.15;;;15.90;99.90;;;;;;4226228;28;20229;-74
2022/01/09 10:33:04;;;;;;;6.43;1.98;;;15.80;99.90;;;;;;4228218;27;20345;-74
2022/01/09 10:35:13;;;;;;;5.23;1.90;;;15.80;99.90;;;;;;4227927;28;20264;-74
2022/01/09 10:37:18;;;;;;;6.27;2.07;;;15.80;99.90;;;;;;4226732;28;20258;-75
2022/01/09 10:39:29;;;;;;;5.55;2.17;;;15.90;99.90;;;;;;4228570;28;20978;-75